Time;durP1;ratioP1;P1;durP2;ratioP2;P2;SDS_P1;SDS_P2;PMS_P1;PMS_P2;Temp;Humidity;BMP_temperature;BMP_pressure;BME280_temperature;BME280_humidity;BME280_pressure;Samples;Min_cycle;Max_cycle;Signal;HPM_P1;HPM_P2
2021/12/18 00:00:41;;;;;;;14.80;14.20;;;19.10;99.30;;;;;;5034043;28;20448;-51
2021/12/18 00:03:08;;;;;;;14.47;13.97;;;19.10;99.30;;;;;;5033891;28;20445;-55
2021/12/18 00:05:35;;;;;;;14.07;13.50;;;19.10;99.30;;;;;;5033760;28;21058;-56
2021/12/18 00:08:01;;;;;;;15.73;15.03;;;19.00;99.40;;;;;;5033574;28;20477;-58
2021/12/18 00:10:29;;;;;;;14.47;13.93;;;19.00;99.50;;;;;;5033887;28;20441;-58
2021/12/18 00:12:57;;;;;;;15.90;15.20;;;18.90;99.50;;;;;;5033724;28;20478;-55
2021/12/18 00:15:25;;;;;;;13.97;13.40;;;19.00;99.50;;;;;;5033527;28;20502;-56
2021/12/18 00:17:52;;;;;;;14.63;14.03;;;19.00;99.60;;;;;;5033719;28;20472;-59
2021/12/18 00:20:20;;;;;;;15.00;14.50;;;18.90;99.80;;;;;;5033735;28;20449;-59
2021/12/18 00:22:47;;;;;;;14.50;13.90;;;18.90;99.70;;;;;;5033585;28;20541;-58
2021/12/18 00:25:14;;;;;;;14.73;14.23;;;18.90;99.70;;;;;;5033591;28;20448;-57
2021/12/18 00:27:41;;;;;;;15.57;14.90;;;18.90;99.80;;;;;;5033357;28;20468;-58
2021/12/18 00:30:10;;;;;;;14.43;13.73;;;18.90;99.90;;;;;;5033525;28;20510;-56
2021/12/18 00:32:37;;;;;;;14.90;14.30;;;18.80;99.80;;;;;;5033444;28;20449;-59
2021/12/18 00:35:05;;;;;;;15.60;14.90;;;18.80;99.90;;;;;;5033541;28;20807;-55
2021/12/18 00:37:32;;;;;;;15.07;14.47;;;18.90;99.90;;;;;;5033005;28;20484;-56
2021/12/18 00:40:00;;;;;;;14.87;14.30;;;18.90;99.90;;;;;;5033123;28;20452;-56
2021/12/18 00:42:39;;;;;;;14.63;14.10;;;18.80;99.90;;;;;;5033370;28;20457;-55
2021/12/18 00:45:07;;;;;;;14.80;14.30;;;18.80;99.90;;;;;;5033397;28;20444;-58
2021/12/18 00:47:35;;;;;;;14.80;14.30;;;18.80;99.90;;;;;;5032854;28;21006;-53
2021/12/18 00:50:03;;;;;;;15.70;15.00;;;18.80;99.90;;;;;;5033053;28;20481;-52
2021/12/18 00:52:29;;;;;;;15.03;14.43;;;18.80;99.90;;;;;;5032826;28;20457;-53
2021/12/18 00:54:56;;;;;;;14.47;13.87;;;18.80;99.90;;;;;;5033022;28;20448;-59
2021/12/18 00:57:23;;;;;;;15.00;14.37;;;18.80;99.90;;;;;;5032862;28;20465;-57
2021/12/18 00:59:52;;;;;;;15.00;14.50;;;18.70;99.90;;;;;;5032574;28;20951;-58
2021/12/18 01:02:19;;;;;;;13.97;13.47;;;18.70;99.90;;;;;;5031714;28;20461;-55
2021/12/18 01:04:47;;;;;;;14.23;13.53;;;18.70;99.90;;;;;;5032928;28;20449;-55
2021/12/18 01:07:14;;;;;;;15.00;14.40;;;18.70;99.90;;;;;;5032838;28;20476;-54
2021/12/18 01:09:56;;;;;;;14.87;14.27;;;18.70;99.90;;;;;;5032597;28;20476;-51
2021/12/18 01:12:27;;;;;;;14.07;13.57;;;18.70;99.90;;;;;;5012789;28;20442;-54
2021/12/18 01:15:05;;;;;;;14.60;14.00;;;18.70;99.90;;;;;;5013008;28;20450;-56
2021/12/18 01:23:02;;;;;;;14.73;14.13;;;18.70;99.90;;;;;;5023500;28;20475;-51
2021/12/18 01:25:28;;;;;;;13.90;13.40;;;18.70;99.90;;;;;;5032289;28;20802;-53
2021/12/18 01:27:55;;;;;;;14.90;14.33;;;18.70;99.90;;;;;;5032350;28;20829;-55
2021/12/18 01:30:22;;;;;;;14.60;14.10;;;18.70;99.90;;;;;;5032389;28;20485;-56
2021/12/18 01:32:49;;;;;;;15.37;14.77;;;18.60;99.90;;;;;;5032057;28;20449;-55
2021/12/18 01:35:17;;;;;;;15.23;14.60;;;18.60;99.90;;;;;;5032126;28;20449;-54
2021/12/18 01:37:46;;;;;;;15.03;14.43;;;18.60;99.90;;;;;;5031970;28;20480;-53
2021/12/18 01:40:14;;;;;;;15.53;14.80;;;18.60;99.90;;;;;;5032201;28;20453;-54
2021/12/18 01:45:33;;;;;;;14.63;13.93;;;18.60;99.90;;;;;;5032199;28;20475;-54
2021/12/18 01:53:30;;;;;;;14.70;14.17;;;18.60;99.90;;;;;;5031437;28;20440;-53
2021/12/18 01:55:56;;;;;;;15.30;14.70;;;18.50;99.90;;;;;;5031914;28;20946;-56
2021/12/18 01:58:24;;;;;;;14.97;14.37;;;18.50;99.90;;;;;;5031802;28;20522;-53
2021/12/18 02:00:53;;;;;;;15.53;14.83;;;18.50;99.90;;;;;;5031849;28;20453;-57
2021/12/18 02:03:21;;;;;;;14.70;14.10;;;18.50;99.90;;;;;;5031505;28;20445;-52
2021/12/18 02:05:50;;;;;;;15.70;15.00;;;18.60;99.90;;;;;;5031490;28;20788;-55
2021/12/18 02:08:19;;;;;;;14.93;14.33;;;18.50;99.90;;;;;;5031752;28;20518;-55
2021/12/18 02:10:51;;;;;;;15.10;14.50;;;18.50;99.90;;;;;;5031671;28;21002;-54
2021/12/18 02:13:37;;;;;;;15.70;15.00;;;18.50;99.90;;;;;;5031399;28;20806;-52
2021/12/18 02:21:34;;;;;;;14.83;14.23;;;18.50;99.90;;;;;;5031623;28;20441;-55
2021/12/18 02:24:04;;;;;;;15.90;14.93;;;18.50;99.90;;;;;;5031399;28;20445;-58
2021/12/18 02:26:31;;;;;;;15.33;14.67;;;18.50;99.90;;;;;;5031164;28;20456;-55
2021/12/18 02:29:00;;;;;;;15.07;14.27;;;18.40;99.90;;;;;;5031493;28;20504;-55
2021/12/18 02:31:28;;;;;;;14.77;14.00;;;18.40;99.90;;;;;;5031328;28;20453;-56
2021/12/18 02:33:54;;;;;;;14.90;14.30;;;18.50;99.90;;;;;;5031546;28;20813;-54
2021/12/18 02:36:24;;;;;;;15.10;14.50;;;18.40;99.90;;;;;;5030904;28;20453;-55
2021/12/18 02:39:17;;;;;;;15.00;14.40;;;18.40;99.90;;;;;;5045887;22;20584;-46
2021/12/18 02:41:46;;;;;;;14.60;14.07;;;18.40;99.90;;;;;;4991937;28;21039;-47
2021/12/18 02:44:14;;;;;;;15.30;14.57;;;18.40;99.90;;;;;;4992034;28;20817;-47
2021/12/18 02:46:41;;;;;;;15.33;14.63;;;18.40;99.90;;;;;;5010939;28;20446;-47
2021/12/18 02:49:10;;;;;;;14.23;13.63;;;18.40;99.90;;;;;;5011629;28;20478;-48
2021/12/18 02:51:38;;;;;;;15.10;14.50;;;18.40;99.90;;;;;;5011435;28;20461;-48
2021/12/18 02:54:07;;;;;;;14.60;14.00;;;18.40;99.90;;;;;;5011550;28;20442;-48
2021/12/18 02:56:34;;;;;;;14.63;14.03;;;18.40;99.90;;;;;;5011220;28;20847;-51
2021/12/18 02:59:05;;;;;;;14.30;13.70;;;18.40;99.90;;;;;;5011470;28;21091;-48
2021/12/18 03:01:33;;;;;;;14.50;14.00;;;18.40;99.90;;;;;;5011430;28;20450;-48
2021/12/18 03:04:03;;;;;;;15.37;14.77;;;18.40;99.90;;;;;;5011353;28;20939;-48
2021/12/18 03:06:34;;;;;;;14.30;13.70;;;18.40;99.90;;;;;;5011448;28;20818;-51
2021/12/18 03:09:25;;;;;;;16.40;15.40;;;18.30;99.90;;;;;;5011077;28;20474;-48
2021/12/18 03:23:07;;;;;;;15.17;14.57;;;18.30;99.90;;;;;;5010031;28;20545;-48
2021/12/18 03:25:36;;;;;;;15.43;14.60;;;18.30;99.90;;;;;;5011823;28;20453;-48
2021/12/18 03:28:06;;;;;;;15.60;15.00;;;18.30;99.90;;;;;;5014862;28;20469;-47
2021/12/18 03:30:34;;;;;;;15.80;15.10;;;18.30;99.90;;;;;;5014809;28;20508;-52
2021/12/18 03:33:01;;;;;;;15.50;14.70;;;18.30;99.90;;;;;;5014331;28;20452;-50
2021/12/18 03:35:27;;;;;;;15.03;14.43;;;18.30;99.90;;;;;;5014803;28;20823;-54
2021/12/18 03:37:54;;;;;;;15.20;14.60;;;18.30;99.90;;;;;;5014555;28;20485;-45
2021/12/18 03:40:24;;;;;;;14.93;14.23;;;18.30;99.90;;;;;;5014692;28;20446;-49
2021/12/18 03:42:52;;;;;;;14.73;14.03;;;18.30;99.90;;;;;;5014318;28;20442;-50
2021/12/18 03:45:21;;;;;;;14.77;14.17;;;18.30;99.90;;;;;;5014059;28;20827;-49
2021/12/18 03:47:49;;;;;;;15.20;14.20;;;18.30;99.90;;;;;;5014531;28;20470;-50
2021/12/18 03:50:16;;;;;;;14.50;13.90;;;18.40;99.90;;;;;;5014422;28;20481;-48
2021/12/18 03:52:42;;;;;;;14.33;13.80;;;18.40;99.90;;;;;;5014375;28;20459;-48
2021/12/18 03:55:10;;;;;;;14.37;13.70;;;18.50;99.90;;;;;;5014506;28;20499;-51
2021/12/18 03:57:36;;;;;;;15.00;14.30;;;18.50;99.90;;;;;;5014178;28;20470;-51
2021/12/18 04:00:04;;;;;;;14.80;14.20;;;18.50;99.90;;;;;;5014283;28;20454;-53
2021/12/18 04:02:32;;;;;;;15.73;15.03;;;18.60;99.90;;;;;;5014146;28;20445;-49
2021/12/18 04:04:59;;;;;;;14.40;13.83;;;18.60;99.90;;;;;;5014398;28;20913;-52
2021/12/18 04:07:26;;;;;;;13.83;13.33;;;18.60;99.90;;;;;;5014096;28;20473;-49
2021/12/18 04:09:53;;;;;;;14.20;13.70;;;18.60;99.90;;;;;;5013836;28;20515;-50
2021/12/18 04:12:19;;;;;;;13.53;13.00;;;18.60;99.90;;;;;;5013754;28;20446;-50
2021/12/18 04:14:46;;;;;;;14.20;13.70;;;18.60;99.90;;;;;;5013991;28;20450;-49
2021/12/18 04:17:13;;;;;;;14.10;13.50;;;18.60;99.90;;;;;;5013907;28;20474;-49
2021/12/18 04:19:41;;;;;;;14.30;13.80;;;18.60;99.90;;;;;;5013870;28;20453;-50
2021/12/18 04:22:08;;;;;;;14.77;14.17;;;18.60;99.90;;;;;;5013413;28;20944;-52
2021/12/18 04:24:34;;;;;;;15.30;14.50;;;18.60;99.90;;;;;;5013732;28;20451;-48
2021/12/18 04:27:01;;;;;;;15.50;14.70;;;18.60;99.90;;;;;;5013718;28;20866;-48
2021/12/18 04:29:28;;;;;;;14.30;13.70;;;18.60;99.90;;;;;;5013680;28;20488;-48
2021/12/18 04:31:56;;;;;;;14.27;13.57;;;18.50;99.90;;;;;;5013586;28;20445;-49
2021/12/18 04:34:22;;;;;;;14.10;13.47;;;18.50;99.90;;;;;;5013295;28;20946;-47
2021/12/18 04:36:50;;;;;;;14.10;13.50;;;18.60;99.90;;;;;;5013148;28;20473;-49
2021/12/18 04:39:17;;;;;;;15.00;14.30;;;18.60;99.90;;;;;;5013682;28;20457;-48
2021/12/18 04:41:49;;;;;;;14.73;14.03;;;18.60;99.90;;;;;;5013448;28;20453;-47
2021/12/18 04:44:16;;;;;;;14.77;14.17;;;18.60;99.90;;;;;;5013526;28;20473;-50
2021/12/18 04:46:43;;;;;;;14.07;13.57;;;18.60;99.90;;;;;;5013188;28;20453;-48
2021/12/18 04:49:10;;;;;;;14.40;13.90;;;18.60;99.90;;;;;;5013104;28;20450;-49
2021/12/18 04:51:36;;;;;;;15.00;14.40;;;18.60;99.90;;;;;;5013158;28;20486;-49
2021/12/18 04:54:05;;;;;;;14.27;13.77;;;18.60;99.90;;;;;;5013106;28;20458;-49
2021/12/18 04:56:32;;;;;;;14.60;14.00;;;18.60;99.90;;;;;;5013337;28;20454;-51
2021/12/18 04:58:58;;;;;;;14.23;13.70;;;18.60;99.90;;;;;;5012945;28;20501;-50
2021/12/18 05:01:25;;;;;;;13.60;13.00;;;18.60;99.90;;;;;;5013086;28;20932;-49
2021/12/18 05:03:52;;;;;;;13.50;12.90;;;18.60;99.90;;;;;;5013033;28;20808;-47
2021/12/18 05:06:19;;;;;;;12.80;12.30;;;18.60;99.90;;;;;;5013131;28;20449;-47
2021/12/18 05:08:45;;;;;;;13.43;12.93;;;18.60;99.90;;;;;;5012880;28;20983;-49
2021/12/18 05:11:13;;;;;;;13.40;12.80;;;18.60;99.90;;;;;;5012670;28;20838;-47
2021/12/18 05:13:40;;;;;;;13.80;13.30;;;18.60;99.90;;;;;;5012825;28;20454;-48
2021/12/18 05:16:07;;;;;;;13.23;12.73;;;18.60;99.90;;;;;;5012900;28;20450;-48
2021/12/18 05:18:33;;;;;;;13.57;13.07;;;18.60;99.90;;;;;;5012768;28;20470;-52
2021/12/18 05:21:00;;;;;;;13.90;13.30;;;18.60;99.90;;;;;;5012797;28;20530;-49
2021/12/18 05:23:27;;;;;;;14.30;13.70;;;18.50;99.90;;;;;;5012316;28;20457;-47
2021/12/18 05:25:53;;;;;;;14.37;13.77;;;18.60;99.90;;;;;;5012527;28;20524;-51
2021/12/18 05:28:21;;;;;;;14.20;13.50;;;18.60;99.90;;;;;;5012698;28;20470;-50
2021/12/18 05:30:48;;;;;;;14.87;14.20;;;18.60;99.90;;;;;;5012700;28;20508;-47
2021/12/18 05:33:15;;;;;;;14.13;13.60;;;18.50;99.90;;;;;;5012432;28;20450;-47
2021/12/18 05:35:42;;;;;;;14.43;13.83;;;18.50;99.90;;;;;;5012376;28;20446;-47
2021/12/18 05:38:08;;;;;;;14.03;13.53;;;18.50;99.90;;;;;;5012373;28;20493;-50
2021/12/18 05:40:37;;;;;;;15.30;14.80;;;18.50;99.90;;;;;;5012547;28;20928;-47
2021/12/18 05:43:04;;;;;;;15.10;14.40;;;18.50;99.90;;;;;;5012327;28;20449;-52
2021/12/18 05:45:33;;;;;;;14.57;14.00;;;18.60;99.90;;;;;;5012474;28;20450;-47
2021/12/18 05:47:59;;;;;;;15.87;15.00;;;18.50;99.90;;;;;;5011629;28;20524;-47
2021/12/18 05:50:28;;;;;;;15.20;14.67;;;18.50;99.90;;;;;;5012051;28;20509;-53
2021/12/18 05:52:56;;;;;;;14.33;13.83;;;18.80;99.90;;;;;;5012130;28;21022;-49
2021/12/18 05:55:25;;;;;;;13.67;13.17;;;19.50;99.90;;;;;;5010555;28;20947;-52
2021/12/18 05:57:52;;;;;;;14.40;13.90;;;20.00;99.90;;;;;;5000367;28;20478;-50
2021/12/18 06:00:19;;;;;;;15.77;15.07;;;20.30;98.50;;;;;;5000382;28;20457;-52
2021/12/18 06:02:48;;;;;;;15.30;14.70;;;20.50;97.40;;;;;;4999935;28;20454;-52
2021/12/18 06:05:15;;;;;;;15.67;14.97;;;20.60;96.70;;;;;;5000242;28;20484;-51
2021/12/18 06:07:54;;;;;;;14.27;13.67;;;20.70;96.30;;;;;;4999387;28;20953;-47
2021/12/18 06:10:22;;;;;;;14.00;13.50;;;20.80;96.10;;;;;;5000040;28;20813;-50
2021/12/18 06:12:49;;;;;;;17.83;16.20;;;20.90;95.80;;;;;;4999955;28;20781;-49
2021/12/18 06:15:19;;;;;;;14.60;14.00;;;20.80;95.60;;;;;;5000955;28;20450;-49
2021/12/18 06:17:47;;;;;;;14.67;14.13;;;21.00;95.30;;;;;;4999965;28;20477;-48
2021/12/18 06:20:14;;;;;;;13.90;13.40;;;21.00;95.00;;;;;;5000361;28;21023;-50
2021/12/18 06:22:40;;;;;;;14.83;14.23;;;21.00;94.90;;;;;;4999958;28;20442;-49
2021/12/18 06:25:08;;;;;;;15.83;15.10;;;21.10;94.60;;;;;;5000119;28;20890;-50
2021/12/18 06:27:35;;;;;;;16.63;15.87;;;21.10;93.10;;;;;;4999934;28;20500;-51
2021/12/18 06:30:03;;;;;;;16.30;15.47;;;21.10;92.90;;;;;;4999684;28;20808;-50
2021/12/18 06:32:31;;;;;;;15.13;14.43;;;21.00;93.20;;;;;;5000016;28;20450;-51
2021/12/18 06:34:59;;;;;;;15.60;14.90;;;21.00;94.20;;;;;;5000081;28;20917;-53
2021/12/18 06:37:25;;;;;;;15.00;14.50;;;21.10;94.60;;;;;;5000210;28;20536;-55
2021/12/18 06:39:52;;;;;;;15.27;14.67;;;21.10;94.50;;;;;;5000055;28;20449;-51
2021/12/18 06:42:19;;;;;;;15.77;15.07;;;21.10;94.10;;;;;;4999760;28;20454;-54
2021/12/18 06:44:46;;;;;;;15.27;14.67;;;21.20;93.90;;;;;;5000061;28;20453;-53
2021/12/18 06:47:13;;;;;;;14.47;13.87;;;21.20;93.70;;;;;;5000037;28;20563;-52
2021/12/18 06:49:40;;;;;;;15.37;14.77;;;21.30;93.50;;;;;;4999809;28;20492;-53
2021/12/18 06:52:08;;;;;;;15.67;15.07;;;21.40;93.10;;;;;;4999630;28;20544;-52
2021/12/18 06:54:36;;;;;;;14.80;14.23;;;21.30;92.80;;;;;;4999603;28;20469;-52
2021/12/18 06:57:03;;;;;;;14.80;14.20;;;21.30;92.70;;;;;;4999620;28;20528;-54
2021/12/18 06:59:31;;;;;;;15.77;15.17;;;21.30;92.70;;;;;;5000105;28;20491;-52
2021/12/18 07:01:58;;;;;;;15.07;14.33;;;21.40;92.50;;;;;;5003282;28;20452;-53
2021/12/18 07:04:25;;;;;;;14.57;13.97;;;21.40;92.40;;;;;;5003456;28;20458;-53
2021/12/18 07:06:54;;;;;;;15.00;14.40;;;21.30;92.10;;;;;;5003594;28;20452;-51
2021/12/18 07:09:23;;;;;;;15.77;15.17;;;21.30;92.00;;;;;;5003322;28;20970;-54
2021/12/18 07:11:50;;;;;;;15.50;14.80;;;21.30;92.20;;;;;;5003382;28;20492;-50
2021/12/18 07:14:17;;;;;;;14.20;13.60;;;21.30;92.40;;;;;;5003446;28;20458;-54
2021/12/18 07:16:44;;;;;;;12.70;12.20;;;21.30;92.50;;;;;;5003130;28;20457;-50
2021/12/18 07:19:11;;;;;;;12.70;12.02;;;21.30;93.10;;;;;;5002971;28;20980;-53
2021/12/18 07:21:38;;;;;;;13.63;13.13;;;21.10;93.90;;;;;;5003263;28;20557;-51
2021/12/18 07:24:06;;;;;;;15.15;14.38;;;21.00;94.50;;;;;;5003220;28;20451;-52
2021/12/18 07:26:35;;;;;;;10.63;10.23;;;20.90;95.10;;;;;;5003066;28;20489;-53
2021/12/18 07:29:03;;;;;;;10.70;10.20;;;20.90;95.60;;;;;;5003123;28;20230;-50
2021/12/18 07:31:30;;;;;;;11.20;10.70;;;20.80;96.00;;;;;;5003104;28;20572;-52
2021/12/18 07:33:57;;;;;;;10.23;9.82;;;20.80;96.50;;;;;;5002681;28;20790;-53
2021/12/18 07:36:24;;;;;;;10.70;10.20;;;20.70;97.00;;;;;;5002983;28;20211;-53
2021/12/18 07:38:51;;;;;;;10.97;10.10;;;20.70;97.40;;;;;;5002902;28;20477;-51
2021/12/18 07:41:18;;;;;;;11.13;10.63;;;20.70;97.60;;;;;;5003256;28;20461;-51
2021/12/18 07:43:47;;;;;;;11.43;10.93;;;20.70;98.00;;;;;;5002695;28;20977;-50
2021/12/18 07:46:14;;;;;;;10.67;10.30;;;20.60;98.30;;;;;;5003195;28;20942;-52
2021/12/18 07:48:42;;;;;;;9.90;9.60;;;20.60;98.90;;;;;;5002565;28;20991;-49
2021/12/18 07:51:09;;;;;;;10.80;10.50;;;20.50;98.90;;;;;;5002571;28;20489;-52
2021/12/18 07:53:36;;;;;;;11.33;10.93;;;20.50;99.20;;;;;;5002615;28;20596;-50
2021/12/18 07:56:04;;;;;;;11.47;10.87;;;20.50;99.70;;;;;;5002577;28;20452;-50
2021/12/18 07:58:32;;;;;;;10.73;10.33;;;20.40;99.90;;;;;;5002433;28;20480;-50
2021/12/18 08:01:01;;;;;;;11.40;11.03;;;20.40;99.90;;;;;;5002284;28;20453;-50
2021/12/18 08:03:28;;;;;;;11.10;10.80;;;20.40;99.90;;;;;;5002243;28;20453;-53
2021/12/18 08:05:56;;;;;;;12.50;12.00;;;20.30;99.90;;;;;;5002609;28;20482;-51
2021/12/18 08:08:23;;;;;;;11.27;10.77;;;20.30;99.90;;;;;;5002337;28;20469;-51
2021/12/18 08:10:50;;;;;;;12.57;12.07;;;20.30;99.90;;;;;;5002375;28;20482;-49
2021/12/18 08:13:18;;;;;;;10.18;9.77;;;20.30;99.90;;;;;;5001371;28;20979;-52
2021/12/18 08:15:45;;;;;;;9.75;9.35;;;20.20;99.90;;;;;;5001954;28;20442;-55
2021/12/18 08:18:13;;;;;;;10.37;9.80;;;20.30;99.90;;;;;;5002182;28;20315;-52
2021/12/18 08:20:41;;;;;;;9.90;9.60;;;20.20;99.90;;;;;;5002413;28;20875;-50
2021/12/18 08:23:08;;;;;;;8.70;8.40;;;20.20;99.90;;;;;;5000934;28;20894;-52
2021/12/18 08:25:36;;;;;;;10.87;10.37;;;20.20;99.90;;;;;;5002092;28;20217;-49
2021/12/18 08:28:05;;;;;;;10.07;9.67;;;20.20;99.90;;;;;;5001976;28;20887;-50
2021/12/18 08:30:35;;;;;;;10.47;10.07;;;20.20;99.90;;;;;;5001907;28;20477;-53
2021/12/18 08:33:02;;;;;;;10.10;9.80;;;20.20;99.90;;;;;;5001746;28;20454;-49
2021/12/18 08:35:32;;;;;;;11.53;11.13;;;20.20;99.90;;;;;;5001909;28;20461;-49
2021/12/18 08:38:00;;;;;;;11.37;10.97;;;20.10;99.90;;;;;;5040814;22;20502;-53
2021/12/18 08:40:27;;;;;;;10.30;9.90;;;20.00;99.90;;;;;;5057856;28;20926;-52
2021/12/18 08:42:55;;;;;;;10.00;9.60;;;20.00;99.90;;;;;;5034985;28;20483;-53
2021/12/18 08:45:22;;;;;;;8.40;8.10;;;20.00;99.90;;;;;;5021477;28;20462;-53
2021/12/18 08:47:50;;;;;;;10.07;9.70;;;20.00;99.90;;;;;;5028236;28;20470;-53
2021/12/18 08:50:18;;;;;;;11.00;10.50;;;19.90;99.90;;;;;;5042504;28;20779;-51
2021/12/18 08:52:48;;;;;;;10.80;10.30;;;20.00;99.90;;;;;;5040932;28;20484;-57
2021/12/18 08:55:17;;;;;;;11.63;10.93;;;19.90;99.90;;;;;;5059549;28;20462;-55
2021/12/18 08:57:44;;;;;;;9.80;9.40;;;19.90;99.90;;;;;;5061174;28;20475;-55
2021/12/18 09:00:16;;;;;;;10.80;10.40;;;19.90;99.90;;;;;;5061391;28;20447;-55
2021/12/18 09:02:46;;;;;;;10.83;10.33;;;19.90;99.90;;;;;;5060910;28;20454;-55
2021/12/18 09:05:13;;;;;;;11.40;10.93;;;19.90;99.90;;;;;;5050988;28;20542;-57
2021/12/18 09:07:41;;;;;;;11.60;11.10;;;19.90;99.90;;;;;;5040877;28;21107;-52
2021/12/18 09:10:11;;;;;;;10.30;9.90;;;19.90;99.90;;;;;;5040872;28;20459;-53
2021/12/18 09:12:38;;;;;;;10.30;10.00;;;19.90;99.90;;;;;;5042794;28;20956;-51
2021/12/18 09:15:06;;;;;;;10.00;9.60;;;19.90;99.90;;;;;;5061045;28;20447;-54
2021/12/18 09:17:34;;;;;;;10.23;9.93;;;19.90;99.90;;;;;;5061225;28;20481;-52
2021/12/18 09:20:01;;;;;;;12.03;11.57;;;19.80;99.90;;;;;;5060736;28;20459;-53
2021/12/18 09:22:28;;;;;;;10.40;10.00;;;19.80;99.90;;;;;;5059569;28;20784;-54
2021/12/18 09:24:55;;;;;;;11.60;10.93;;;19.90;99.90;;;;;;5049094;28;20448;-51
2021/12/18 09:27:24;;;;;;;11.50;10.70;;;19.80;99.90;;;;;;5040990;28;20526;-51
2021/12/18 09:29:52;;;;;;;11.07;10.57;;;19.80;99.90;;;;;;5056567;28;20451;-54
2021/12/18 09:32:19;;;;;;;9.20;8.70;;;19.90;99.90;;;;;;5060053;28;20779;-52
2021/12/18 09:34:46;;;;;;;11.13;10.53;;;19.80;99.90;;;;;;5061154;28;20292;-54
2021/12/18 09:37:13;;;;;;;12.07;11.50;;;19.90;99.90;;;;;;5060495;28;20511;-54
2021/12/18 09:39:40;;;;;;;11.77;11.27;;;19.90;99.90;;;;;;5060489;28;20447;-55
2021/12/18 09:42:08;;;;;;;10.97;10.47;;;19.90;99.90;;;;;;5060561;28;20451;-55
2021/12/18 09:44:38;;;;;;;9.90;9.50;;;19.90;99.90;;;;;;5060510;28;20630;-56
2021/12/18 09:47:06;;;;;;;10.67;10.27;;;19.90;99.90;;;;;;5059981;28;20458;-53
2021/12/18 09:49:34;;;;;;;11.77;11.10;;;19.90;99.90;;;;;;5060698;28;20447;-52
2021/12/18 09:52:02;;;;;;;12.13;11.23;;;19.80;99.90;;;;;;5059568;28;20479;-50
2021/12/18 09:54:29;;;;;;;11.40;10.93;;;19.80;99.90;;;;;;5044283;28;20455;-52
2021/12/18 09:56:57;;;;;;;10.80;10.33;;;19.80;99.90;;;;;;5040316;28;20462;-55
2021/12/18 09:59:24;;;;;;;11.10;10.70;;;19.80;99.90;;;;;;5040179;28;20472;-54
2021/12/18 10:01:52;;;;;;;11.50;11.10;;;19.80;99.90;;;;;;5039916;28;20440;-56
2021/12/18 10:04:32;;;;;;;11.47;10.87;;;19.80;99.90;;;;;;5040204;28;20456;-56
2021/12/18 10:07:00;;;;;;;10.10;9.60;;;19.80;99.90;;;;;;5056423;28;20456;-53
2021/12/18 10:09:34;;;;;;;10.80;10.40;;;19.80;99.90;;;;;;5060010;28;20301;-52
2021/12/18 10:12:03;;;;;;;11.07;10.60;;;19.80;99.90;;;;;;5059520;28;20491;-53
2021/12/18 10:14:36;;;;;;;12.60;11.90;;;19.60;99.90;;;;;;5059927;28;20970;-58
2021/12/18 10:17:06;;;;;;;11.50;11.00;;;19.60;99.90;;;;;;5060106;28;20442;-54
2021/12/18 10:19:35;;;;;;;11.33;10.83;;;19.60;99.90;;;;;;5040789;28;20455;-54
2021/12/18 10:22:05;;;;;;;11.07;10.57;;;19.50;99.90;;;;;;5039960;28;21184;-54
2021/12/18 10:24:33;;;;;;;11.00;10.60;;;19.60;99.90;;;;;;5039968;28;20812;-54
2021/12/18 10:27:01;;;;;;;11.53;11.03;;;19.60;99.90;;;;;;5039552;28;20448;-54
2021/12/18 10:29:34;;;;;;;11.20;10.60;;;19.60;99.90;;;;;;5044328;28;20455;-54
2021/12/18 10:32:08;;;;;;;11.47;10.97;;;19.60;99.90;;;;;;5059735;28;20850;-51
2021/12/18 10:34:35;;;;;;;10.87;10.37;;;19.50;99.90;;;;;;5059489;28;20666;-52
2021/12/18 10:37:11;;;;;;;12.20;11.30;;;19.60;99.90;;;;;;5047479;28;20452;-52
2021/12/18 10:39:40;;;;;;;11.50;10.57;;;19.60;99.90;;;;;;5039887;28;20454;-53
2021/12/18 10:42:19;;;;;;;10.60;10.20;;;19.60;99.90;;;;;;5048454;28;20489;-49
2021/12/18 10:45:01;;;;;;;11.90;11.40;;;19.60;99.90;;;;;;5059677;28;20843;-53
2021/12/18 10:47:47;;;;;;;11.33;10.73;;;19.60;99.90;;;;;;5059769;28;20463;-53
2021/12/18 10:50:19;;;;;;;11.17;10.57;;;19.60;99.90;;;;;;5059452;28;20458;-54
2021/12/18 10:52:53;;;;;;;11.40;10.90;;;19.60;99.90;;;;;;5059522;28;20487;-59
2021/12/18 10:55:26;;;;;;;11.10;10.57;;;19.50;99.90;;;;;;5043483;28;20918;-55
2021/12/18 10:57:55;;;;;;;11.37;10.97;;;19.50;99.90;;;;;;5039768;28;20922;-55
2021/12/18 11:00:32;;;;;;;10.97;10.57;;;19.50;99.90;;;;;;5039530;28;20547;-49
2021/12/18 11:03:30;;;;;;;11.47;10.80;;;19.60;99.90;;;;;;5039551;28;20452;-58
2021/12/18 11:06:12;;;;;;;11.10;10.30;;;19.60;99.90;;;;;;5039369;28;20444;-54
2021/12/18 11:09:04;;;;;;;9.40;8.90;;;19.70;99.90;;;;;;5038174;28;20435;-58
2021/12/18 11:14:23;;;;;;;10.03;9.73;;;19.70;99.90;;;;;;5039655;28;20481;-57
2021/12/18 11:16:52;;;;;;;10.73;10.33;;;19.60;99.90;;;;;;5039304;28;20444;-55
2021/12/18 11:19:21;;;;;;;11.10;10.63;;;19.60;99.90;;;;;;5040000;28;20475;-54
2021/12/18 11:21:49;;;;;;;10.63;10.33;;;19.60;99.90;;;;;;5039182;28;20440;-55
2021/12/18 11:24:16;;;;;;;10.17;9.77;;;19.60;99.90;;;;;;5039269;28;20952;-56
2021/12/18 11:26:50;;;;;;;10.07;9.67;;;19.60;99.90;;;;;;5039027;28;20455;-59
2021/12/18 11:29:21;;;;;;;10.03;9.53;;;19.60;99.90;;;;;;5039069;28;20499;-59
2021/12/18 11:31:48;;;;;;;11.27;10.87;;;19.50;99.90;;;;;;5052649;28;20992;-60
2021/12/18 11:34:17;;;;;;;11.50;11.10;;;19.50;99.90;;;;;;5040081;28;20746;-57
2021/12/18 11:36:48;;;;;;;11.53;10.93;;;19.50;99.90;;;;;;5039590;28;20437;-57
2021/12/18 11:39:18;;;;;;;10.57;10.17;;;19.50;99.90;;;;;;5039128;28;20832;-55
2021/12/18 11:41:49;;;;;;;11.10;10.60;;;19.60;99.90;;;;;;5039365;28;20459;-58
2021/12/18 11:44:34;;;;;;;10.33;10.00;;;19.50;99.90;;;;;;5047376;28;20452;-58
2021/12/18 11:47:25;;;;;;;11.23;10.73;;;19.50;99.90;;;;;;5045492;28;20473;-55
2021/12/18 11:49:54;;;;;;;11.73;11.30;;;19.50;99.90;;;;;;5060168;28;20508;-56
2021/12/18 11:52:22;;;;;;;10.75;10.15;;;19.50;99.90;;;;;;5041353;28;20630;-55
2021/12/18 11:54:51;;;;;;;11.57;11.17;;;19.50;99.90;;;;;;5052967;28;20204;-56
2021/12/18 11:57:42;;;;;;;11.63;11.23;;;19.60;99.90;;;;;;5048210;28;20456;-54
2021/12/18 12:00:34;;;;;;;10.67;10.27;;;19.60;99.90;;;;;;5047187;28;20451;-55
2021/12/18 12:03:03;;;;;;;10.80;10.30;;;19.60;99.90;;;;;;5042731;28;20937;-54
2021/12/18 12:05:35;;;;;;;11.67;11.17;;;19.60;99.90;;;;;;5042743;28;20448;-53
2021/12/18 12:08:34;;;;;;;11.33;10.90;;;19.50;99.90;;;;;;5042977;28;20942;-57
2021/12/18 12:11:16;;;;;;;12.10;11.10;;;19.50;99.90;;;;;;5042523;28;20448;-57
2021/12/18 12:14:06;;;;;;;11.43;10.73;;;19.60;99.90;;;;;;5058764;28;20483;-57
2021/12/18 12:16:58;;;;;;;10.93;10.17;;;19.60;99.90;;;;;;5062700;28;20461;-53
2021/12/18 12:19:56;;;;;;;11.23;10.53;;;19.60;99.90;;;;;;5042173;28;20440;-51
2021/12/18 12:22:52;;;;;;;12.77;11.77;;;19.60;99.90;;;;;;5041856;28;20445;-54
2021/12/18 12:25:34;;;;;;;12.10;11.40;;;19.60;99.90;;;;;;5042080;28;20444;-53
2021/12/18 12:28:02;;;;;;;10.80;10.20;;;19.60;99.90;;;;;;5041458;28;20467;-55
2021/12/18 12:30:34;;;;;;;12.77;12.07;;;19.50;99.90;;;;;;5042116;28;20444;-57
2021/12/18 12:33:03;;;;;;;11.70;10.90;;;19.50;99.90;;;;;;5041818;28;21001;-55
2021/12/18 12:35:30;;;;;;;12.60;11.80;;;19.50;99.90;;;;;;5041822;28;20872;-54
2021/12/18 12:37:57;;;;;;;11.50;10.90;;;19.50;99.90;;;;;;5041338;28;20874;-52
2021/12/18 12:40:35;;;;;;;11.70;10.77;;;19.60;99.90;;;;;;5041620;28;21000;-54
2021/12/18 12:43:16;;;;;;;11.57;10.97;;;19.50;99.90;;;;;;5041534;28;20930;-56
2021/12/18 12:45:46;;;;;;;11.73;10.83;;;19.50;99.90;;;;;;5041566;28;20448;-57
2021/12/18 12:48:13;;;;;;;12.30;11.60;;;19.60;99.90;;;;;;5041433;28;20559;-56
2021/12/18 12:50:39;;;;;;;12.13;11.33;;;19.50;99.90;;;;;;5041579;28;20748;-50
2021/12/18 12:53:09;;;;;;;12.23;11.50;;;19.50;99.90;;;;;;5041151;28;20479;-52
2021/12/18 12:55:44;;;;;;;11.83;11.23;;;19.50;99.90;;;;;;5041869;28;21287;-56
2021/12/18 12:58:18;;;;;;;13.17;12.07;;;19.50;99.90;;;;;;5041558;28;20542;-57
2021/12/18 13:00:59;;;;;;;11.90;11.20;;;19.50;99.90;;;;;;5041647;28;20456;-53
2021/12/18 13:03:32;;;;;;;12.30;11.63;;;19.50;99.90;;;;;;5041222;28;20440;-54
2021/12/18 13:06:04;;;;;;;11.83;11.33;;;19.50;99.90;;;;;;5041249;28;20456;-56
2021/12/18 13:08:33;;;;;;;11.17;10.67;;;19.40;99.90;;;;;;5041322;28;20475;-51
2021/12/18 13:11:02;;;;;;;11.63;11.03;;;19.40;99.90;;;;;;5041124;28;20535;-56
2021/12/18 13:13:31;;;;;;;12.30;11.50;;;19.40;99.90;;;;;;5040917;28;20507;-54